sensor_id;sensor_type;location;lat;lon;timestamp;P1;durP1;ratioP1;P2;durP2;ratioP2
7432;SDS011;32233;49.500;7.764;2023-08-12T00:02:16;5.60;;;5.10;;
7432;SDS011;32233;49.500;7.764;2023-08-12T00:04:42;5.93;;;5.13;;
7432;SDS011;32233;49.500;7.764;2023-08-12T00:07:09;6.97;;;5.40;;
7432;SDS011;32233;49.500;7.764;2023-08-12T00:09:36;5.33;;;4.83;;
7432;SDS011;32233;49.500;7.764;2023-08-12T00:12:02;5.50;;;5.00;;
7432;SDS011;32233;49.500;7.764;2023-08-12T00:14:29;6.20;;;5.10;;
7432;SDS011;32233;49.500;7.764;2023-08-12T00:16:56;8.57;;;5.73;;
7432;SDS011;32233;49.500;7.764;2023-08-12T00:19:23;6.23;;;5.10;;
7432;SDS011;32233;49.500;7.764;2023-08-12T00:21:49;5.50;;;5.00;;
7432;SDS011;32233;49.500;7.764;2023-08-12T00:24:18;5.90;;;5.30;;
7432;SDS011;32233;49.500;7.764;2023-08-12T00:26:45;5.30;;;4.80;;
7432;SDS011;32233;49.500;7.764;2023-08-12T00:29:11;5.67;;;5.10;;
7432;SDS011;32233;49.500;7.764;2023-08-12T00:31:38;5.77;;;5.17;;
7432;SDS011;32233;49.500;7.764;2023-08-12T00:34:04;5.93;;;4.70;;
7432;SDS011;32233;49.500;7.764;2023-08-12T00:36:31;5.87;;;5.27;;
7432;SDS011;32233;49.500;7.764;2023-08-12T00:38:57;5.77;;;5.20;;
7432;SDS011;32233;49.500;7.764;2023-08-12T00:41:24;5.63;;;5.13;;
7432;SDS011;32233;49.500;7.764;2023-08-12T00:43:51;6.73;;;5.20;;
7432;SDS011;32233;49.500;7.764;2023-08-12T00:46:17;5.37;;;4.97;;
7432;SDS011;32233;49.500;7.764;2023-08-12T00:48:44;6.77;;;4.93;;
7432;SDS011;32233;49.500;7.764;2023-08-12T00:51:10;5.70;;;5.03;;
7432;SDS011;32233;49.500;7.764;2023-08-12T00:53:37;6.93;;;5.20;;
7432;SDS011;32233;49.500;7.764;2023-08-12T00:56:04;7.93;;;5.50;;
7432;SDS011;32233;49.500;7.764;2023-08-12T00:58:32;6.37;;;5.30;;
7432;SDS011;32233;49.500;7.764;2023-08-12T01:00:59;6.37;;;5.77;;
7432;SDS011;32233;49.500;7.764;2023-08-12T01:03:26;6.00;;;5.47;;
7432;SDS011;32233;49.500;7.764;2023-08-12T01:05:53;6.17;;;5.17;;
7432;SDS011;32233;49.500;7.764;2023-08-12T01:08:20;6.07;;;5.47;;
7432;SDS011;32233;49.500;7.764;2023-08-12T01:10:49;5.93;;;5.23;;
7432;SDS011;32233;49.500;7.764;2023-08-12T01:16:23;6.33;;;5.30;;
7432;SDS011;32233;49.500;7.764;2023-08-12T01:18:55;6.50;;;5.57;;
7432;SDS011;32233;49.500;7.764;2023-08-12T01:21:22;5.80;;;5.30;;
7432;SDS011;32233;49.500;7.764;2023-08-12T01:23:50;6.40;;;5.60;;
7432;SDS011;32233;49.500;7.764;2023-08-12T01:26:17;6.90;;;6.20;;
7432;SDS011;32233;49.500;7.764;2023-08-12T01:28:44;7.80;;;6.23;;
7432;SDS011;32233;49.500;7.764;2023-08-12T01:31:12;7.03;;;6.37;;
7432;SDS011;32233;49.500;7.764;2023-08-12T01:34:07;8.73;;;6.90;;
7432;SDS011;32233;49.500;7.764;2023-08-12T01:36:43;7.27;;;6.57;;
7432;SDS011;32233;49.500;7.764;2023-08-12T01:39:15;9.40;;;7.20;;
7432;SDS011;32233;49.500;7.764;2023-08-12T01:41:44;8.50;;;7.60;;
7432;SDS011;32233;49.500;7.764;2023-08-12T01:44:12;10.93;;;7.70;;
7432;SDS011;32233;49.500;7.764;2023-08-12T01:46:38;8.40;;;7.57;;
7432;SDS011;32233;49.500;7.764;2023-08-12T01:49:05;10.47;;;8.63;;
7432;SDS011;32233;49.500;7.764;2023-08-12T01:51:32;10.53;;;8.13;;
7432;SDS011;32233;49.500;7.764;2023-08-12T01:53:58;15.47;;;10.07;;
7432;SDS011;32233;49.500;7.764;2023-08-12T01:56:25;14.87;;;10.20;;
7432;SDS011;32233;49.500;7.764;2023-08-12T01:58:51;18.10;;;11.67;;
7432;SDS011;32233;49.500;7.764;2023-08-12T02:01:18;19.50;;;13.83;;
7432;SDS011;32233;49.500;7.764;2023-08-12T02:03:44;17.33;;;13.47;;
7432;SDS011;32233;49.500;7.764;2023-08-12T02:06:11;17.20;;;13.27;;
7432;SDS011;32233;49.500;7.764;2023-08-12T02:08:37;16.03;;;13.47;;
7432;SDS011;32233;49.500;7.764;2023-08-12T02:11:04;21.50;;;14.70;;
7432;SDS011;32233;49.500;7.764;2023-08-12T02:13:31;21.37;;;15.60;;
7432;SDS011;32233;49.500;7.764;2023-08-12T02:16:03;20.60;;;13.40;;
7432;SDS011;32233;49.500;7.764;2023-08-12T02:18:31;14.10;;;12.60;;
7432;SDS011;32233;49.500;7.764;2023-08-12T02:20:57;18.23;;;13.10;;
7432;SDS011;32233;49.500;7.764;2023-08-12T02:23:24;16.97;;;13.03;;
7432;SDS011;32233;49.500;7.764;2023-08-12T02:25:51;23.83;;;15.23;;
7432;SDS011;32233;49.500;7.764;2023-08-12T02:28:18;22.07;;;14.63;;
7432;SDS011;32233;49.500;7.764;2023-08-12T02:30:44;26.97;;;15.93;;
7432;SDS011;32233;49.500;7.764;2023-08-12T02:33:11;24.10;;;16.37;;
7432;SDS011;32233;49.500;7.764;2023-08-12T02:35:38;22.03;;;15.70;;
7432;SDS011;32233;49.500;7.764;2023-08-12T02:38:04;21.50;;;15.20;;
7432;SDS011;32233;49.500;7.764;2023-08-12T02:40:31;18.60;;;14.17;;
7432;SDS011;32233;49.500;7.764;2023-08-12T02:42:57;20.83;;;15.33;;
7432;SDS011;32233;49.500;7.764;2023-08-12T02:45:24;22.83;;;15.90;;
7432;SDS011;32233;49.500;7.764;2023-08-12T02:47:51;22.00;;;15.73;;
7432;SDS011;32233;49.500;7.764;2023-08-12T02:50:17;14.23;;;12.73;;
7432;SDS011;32233;49.500;7.764;2023-08-12T02:52:44;23.63;;;16.07;;
7432;SDS011;32233;49.500;7.764;2023-08-12T02:55:10;21.37;;;16.93;;
7432;SDS011;32233;49.500;7.764;2023-08-12T02:57:37;32.07;;;19.33;;
7432;SDS011;32233;49.500;7.764;2023-08-12T03:00:04;30.13;;;19.40;;
7432;SDS011;32233;49.500;7.764;2023-08-12T03:02:31;25.40;;;17.10;;
7432;SDS011;32233;49.500;7.764;2023-08-12T03:04:58;27.30;;;18.97;;
7432;SDS011;32233;49.500;7.764;2023-08-12T03:07:25;26.20;;;18.20;;
7432;SDS011;32233;49.500;7.764;2023-08-12T03:09:51;33.47;;;20.57;;
7432;SDS011;32233;49.500;7.764;2023-08-12T03:12:18;36.30;;;22.70;;
7432;SDS011;32233;49.500;7.764;2023-08-12T03:14:44;30.10;;;20.53;;
7432;SDS011;32233;49.500;7.764;2023-08-12T03:17:11;28.93;;;19.20;;
7432;SDS011;32233;49.500;7.764;2023-08-12T03:19:38;26.00;;;18.40;;
7432;SDS011;32233;49.500;7.764;2023-08-12T03:22:05;27.93;;;20.13;;
7432;SDS011;32233;49.500;7.764;2023-08-12T03:24:32;29.37;;;19.70;;
7432;SDS011;32233;49.500;7.764;2023-08-12T03:26:59;36.03;;;21.80;;
7432;SDS011;32233;49.500;7.764;2023-08-12T03:29:27;24.10;;;18.10;;
7432;SDS011;32233;49.500;7.764;2023-08-12T03:31:54;36.97;;;22.30;;
7432;SDS011;32233;49.500;7.764;2023-08-12T03:34:22;35.90;;;22.10;;
7432;SDS011;32233;49.500;7.764;2023-08-12T03:36:49;37.70;;;22.87;;
7432;SDS011;32233;49.500;7.764;2023-08-12T03:39:18;29.47;;;20.17;;
7432;SDS011;32233;49.500;7.764;2023-08-12T03:41:48;31.57;;;20.10;;
7432;SDS011;32233;49.500;7.764;2023-08-12T03:44:16;30.93;;;19.73;;
7432;SDS011;32233;49.500;7.764;2023-08-12T03:46:43;31.83;;;20.70;;
7432;SDS011;32233;49.500;7.764;2023-08-12T03:49:10;36.83;;;22.80;;
7432;SDS011;32233;49.500;7.764;2023-08-12T03:51:38;40.40;;;23.37;;
7432;SDS011;32233;49.500;7.764;2023-08-12T03:54:04;40.50;;;22.70;;
7432;SDS011;32233;49.500;7.764;2023-08-12T03:56:31;41.93;;;22.23;;
7432;SDS011;32233;49.500;7.764;2023-08-12T03:59:00;33.73;;;21.23;;
7432;SDS011;32233;49.500;7.764;2023-08-12T04:01:27;31.57;;;20.37;;
7432;SDS011;32233;49.500;7.764;2023-08-12T04:03:54;27.80;;;19.70;;
7432;SDS011;32233;49.500;7.764;2023-08-12T04:06:21;31.83;;;19.97;;
7432;SDS011;32233;49.500;7.764;2023-08-12T04:08:48;49.57;;;24.83;;
7432;SDS011;32233;49.500;7.764;2023-08-12T04:11:14;38.77;;;23.17;;
7432;SDS011;32233;49.500;7.764;2023-08-12T04:13:41;37.83;;;22.57;;
7432;SDS011;32233;49.500;7.764;2023-08-12T04:16:07;34.87;;;21.23;;
7432;SDS011;32233;49.500;7.764;2023-08-12T04:18:35;57.43;;;27.73;;
7432;SDS011;32233;49.500;7.764;2023-08-12T04:21:01;30.00;;;20.23;;
7432;SDS011;32233;49.500;7.764;2023-08-12T04:23:28;28.77;;;19.73;;
7432;SDS011;32233;49.500;7.764;2023-08-12T04:25:56;32.37;;;19.57;;
7432;SDS011;32233;49.500;7.764;2023-08-12T04:28:27;36.10;;;21.47;;
7432;SDS011;32233;49.500;7.764;2023-08-12T04:30:53;38.37;;;23.53;;
7432;SDS011;32233;49.500;7.764;2023-08-12T04:33:22;37.83;;;22.53;;
7432;SDS011;32233;49.500;7.764;2023-08-12T04:35:49;32.57;;;21.37;;
7432;SDS011;32233;49.500;7.764;2023-08-12T04:38:17;29.50;;;19.23;;
7432;SDS011;32233;49.500;7.764;2023-08-12T04:40:45;24.80;;;18.83;;
7432;SDS011;32233;49.500;7.764;2023-08-12T04:43:12;26.87;;;19.07;;
7432;SDS011;32233;49.500;7.764;2023-08-12T04:45:40;30.53;;;20.17;;
7432;SDS011;32233;49.500;7.764;2023-08-12T04:48:06;27.83;;;18.80;;
7432;SDS011;32233;49.500;7.764;2023-08-12T04:50:35;31.63;;;21.17;;
7432;SDS011;32233;49.500;7.764;2023-08-12T04:53:01;42.03;;;24.17;;
7432;SDS011;32233;49.500;7.764;2023-08-12T04:55:28;36.30;;;23.40;;
7432;SDS011;32233;49.500;7.764;2023-08-12T04:57:56;41.47;;;24.03;;
7432;SDS011;32233;49.500;7.764;2023-08-12T05:00:23;35.27;;;21.23;;
7432;SDS011;32233;49.500;7.764;2023-08-12T05:02:51;27.50;;;19.23;;
7432;SDS011;32233;49.500;7.764;2023-08-12T05:05:17;30.27;;;19.83;;
7432;SDS011;32233;49.500;7.764;2023-08-12T05:07:44;30.67;;;20.10;;
7432;SDS011;32233;49.500;7.764;2023-08-12T05:10:16;21.33;;;17.20;;
7432;SDS011;32233;49.500;7.764;2023-08-12T05:12:43;30.10;;;20.63;;
7432;SDS011;32233;49.500;7.764;2023-08-12T05:15:10;26.50;;;18.60;;
7432;SDS011;32233;49.500;7.764;2023-08-12T05:17:37;24.47;;;17.97;;
7432;SDS011;32233;49.500;7.764;2023-08-12T05:20:05;25.20;;;18.57;;
7432;SDS011;32233;49.500;7.764;2023-08-12T05:22:32;26.27;;;16.90;;
7432;SDS011;32233;49.500;7.764;2023-08-12T05:24:58;20.03;;;15.50;;
7432;SDS011;32233;49.500;7.764;2023-08-12T05:27:25;19.17;;;16.20;;
7432;SDS011;32233;49.500;7.764;2023-08-12T05:29:52;20.57;;;16.80;;
7432;SDS011;32233;49.500;7.764;2023-08-12T05:32:18;17.83;;;15.37;;
7432;SDS011;32233;49.500;7.764;2023-08-12T05:34:45;22.27;;;15.90;;
7432;SDS011;32233;49.500;7.764;2023-08-12T05:37:11;23.27;;;17.57;;
7432;SDS011;32233;49.500;7.764;2023-08-12T05:39:38;21.33;;;16.23;;
7432;SDS011;32233;49.500;7.764;2023-08-12T05:42:04;20.63;;;15.83;;
7432;SDS011;32233;49.500;7.764;2023-08-12T05:44:31;17.33;;;13.90;;
7432;SDS011;32233;49.500;7.764;2023-08-12T05:46:58;18.93;;;14.97;;
7432;SDS011;32233;49.500;7.764;2023-08-12T05:49:24;17.20;;;14.50;;
7432;SDS011;32233;49.500;7.764;2023-08-12T05:51:51;16.30;;;14.03;;
7432;SDS011;32233;49.500;7.764;2023-08-12T05:54:17;20.57;;;14.60;;
7432;SDS011;32233;49.500;7.764;2023-08-12T05:56:44;16.03;;;14.03;;
7432;SDS011;32233;49.500;7.764;2023-08-12T05:59:10;16.83;;;13.63;;
7432;SDS011;32233;49.500;7.764;2023-08-12T06:01:37;17.67;;;13.80;;
7432;SDS011;32233;49.500;7.764;2023-08-12T06:04:03;15.77;;;13.73;;
7432;SDS011;32233;49.500;7.764;2023-08-12T06:06:30;17.17;;;14.23;;
7432;SDS011;32233;49.500;7.764;2023-08-12T06:08:56;15.53;;;13.33;;
7432;SDS011;32233;49.500;7.764;2023-08-12T06:11:23;18.57;;;15.03;;
7432;SDS011;32233;49.500;7.764;2023-08-12T06:13:49;15.23;;;12.37;;
7432;SDS011;32233;49.500;7.764;2023-08-12T06:16:16;18.47;;;14.30;;
7432;SDS011;32233;49.500;7.764;2023-08-12T06:18:43;19.63;;;15.13;;
7432;SDS011;32233;49.500;7.764;2023-08-12T06:21:09;15.43;;;13.57;;
7432;SDS011;32233;49.500;7.764;2023-08-12T06:23:36;16.20;;;13.57;;
7432;SDS011;32233;49.500;7.764;2023-08-12T06:26:02;17.57;;;13.90;;
7432;SDS011;32233;49.500;7.764;2023-08-12T06:28:29;17.03;;;14.00;;
7432;SDS011;32233;49.500;7.764;2023-08-12T06:30:55;17.97;;;13.50;;
7432;SDS011;32233;49.500;7.764;2023-08-12T06:33:22;15.63;;;13.93;;
7432;SDS011;32233;49.500;7.764;2023-08-12T06:35:49;15.60;;;13.10;;
7432;SDS011;32233;49.500;7.764;2023-08-12T06:38:16;16.20;;;13.70;;
7432;SDS011;32233;49.500;7.764;2023-08-12T06:40:43;14.60;;;12.90;;
7432;SDS011;32233;49.500;7.764;2023-08-12T06:43:10;15.97;;;13.10;;
7432;SDS011;32233;49.500;7.764;2023-08-12T06:45:37;15.30;;;13.67;;
7432;SDS011;32233;49.500;7.764;2023-08-12T06:48:03;16.10;;;12.87;;
7432;SDS011;32233;49.500;7.764;2023-08-12T06:50:30;15.13;;;13.53;;
7432;SDS011;32233;49.500;7.764;2023-08-12T06:52:59;15.70;;;13.03;;
7432;SDS011;32233;49.500;7.764;2023-08-12T06:55:25;15.23;;;13.63;;
7432;SDS011;32233;49.500;7.764;2023-08-12T06:57:52;13.63;;;11.33;;
7432;SDS011;32233;49.500;7.764;2023-08-12T07:00:19;16.70;;;13.90;;
7432;SDS011;32233;49.500;7.764;2023-08-12T07:02:45;15.10;;;13.13;;
7432;SDS011;32233;49.500;7.764;2023-08-12T07:05:12;14.93;;;13.33;;
7432;SDS011;32233;49.500;7.764;2023-08-12T07:07:38;16.30;;;13.27;;
7432;SDS011;32233;49.500;7.764;2023-08-12T07:10:05;13.57;;;12.23;;
7432;SDS011;32233;49.500;7.764;2023-08-12T07:12:32;14.53;;;13.13;;
7432;SDS011;32233;49.500;7.764;2023-08-12T07:14:59;14.50;;;13.10;;
7432;SDS011;32233;49.500;7.764;2023-08-12T07:17:26;13.13;;;11.77;;
7432;SDS011;32233;49.500;7.764;2023-08-12T07:19:52;12.60;;;11.37;;
7432;SDS011;32233;49.500;7.764;2023-08-12T07:22:19;15.63;;;12.57;;
7432;SDS011;32233;49.500;7.764;2023-08-12T07:24:46;13.03;;;11.80;;
7432;SDS011;32233;49.500;7.764;2023-08-12T07:27:13;13.37;;;12.07;;
7432;SDS011;32233;49.500;7.764;2023-08-12T07:29:39;14.50;;;13.03;;
7432;SDS011;32233;49.500;7.764;2023-08-12T07:32:06;13.87;;;10.63;;
7432;SDS011;32233;49.500;7.764;2023-08-12T07:34:32;14.07;;;12.67;;
7432;SDS011;32233;49.500;7.764;2023-08-12T07:36:59;17.23;;;13.57;;
7432;SDS011;32233;49.500;7.764;2023-08-12T07:39:26;15.33;;;13.70;;
7432;SDS011;32233;49.500;7.764;2023-08-12T07:41:52;18.57;;;14.97;;
7432;SDS011;32233;49.500;7.764;2023-08-12T07:44:19;22.57;;;16.10;;
7432;SDS011;32233;49.500;7.764;2023-08-12T07:46:45;19.30;;;16.20;;
7432;SDS011;32233;49.500;7.764;2023-08-12T07:49:12;18.90;;;15.67;;
7432;SDS011;32233;49.500;7.764;2023-08-12T07:51:38;23.70;;;19.10;;
7432;SDS011;32233;49.500;7.764;2023-08-12T07:54:05;23.03;;;19.07;;
7432;SDS011;32233;49.500;7.764;2023-08-12T07:56:32;21.00;;;17.90;;
7432;SDS011;32233;49.500;7.764;2023-08-12T07:58:59;22.43;;;19.53;;
7432;SDS011;32233;49.500;7.764;2023-08-12T08:01:25;24.93;;;19.53;;
7432;SDS011;32233;49.500;7.764;2023-08-12T08:03:52;22.70;;;17.90;;
7432;SDS011;32233;49.500;7.764;2023-08-12T08:06:19;20.93;;;18.73;;
7432;SDS011;32233;49.500;7.764;2023-08-12T08:08:45;28.23;;;20.97;;
7432;SDS011;32233;49.500;7.764;2023-08-12T08:11:12;22.97;;;18.80;;
7432;SDS011;32233;49.500;7.764;2023-08-12T08:13:38;20.47;;;18.20;;
7432;SDS011;32233;49.500;7.764;2023-08-12T08:16:05;13.90;;;11.93;;
7432;SDS011;32233;49.500;7.764;2023-08-12T08:18:32;18.37;;;15.50;;
7432;SDS011;32233;49.500;7.764;2023-08-12T08:20:58;18.10;;;15.80;;
7432;SDS011;32233;49.500;7.764;2023-08-12T08:23:31;17.00;;;15.30;;
7432;SDS011;32233;49.500;7.764;2023-08-12T08:25:57;15.43;;;13.80;;
7432;SDS011;32233;49.500;7.764;2023-08-12T08:28:27;15.63;;;14.03;;
7432;SDS011;32233;49.500;7.764;2023-08-12T08:30:54;15.97;;;14.23;;
7432;SDS011;32233;49.500;7.764;2023-08-12T08:33:21;14.93;;;13.23;;
7432;SDS011;32233;49.500;7.764;2023-08-12T08:35:47;8.90;;;7.73;;
7432;SDS011;32233;49.500;7.764;2023-08-12T08:38:14;8.93;;;8.13;;
7432;SDS011;32233;49.500;7.764;2023-08-12T08:40:40;7.70;;;6.90;;
7432;SDS011;32233;49.500;7.764;2023-08-12T08:43:08;6.97;;;6.27;;
7432;SDS011;32233;49.500;7.764;2023-08-12T08:45:36;11.27;;;10.10;;
7432;SDS011;32233;49.500;7.764;2023-08-12T08:48:04;9.00;;;8.10;;
7432;SDS011;32233;49.500;7.764;2023-08-12T08:50:32;9.23;;;8.23;;
7432;SDS011;32233;49.500;7.764;2023-08-12T08:52:59;9.77;;;8.33;;
7432;SDS011;32233;49.500;7.764;2023-08-12T08:55:27;8.30;;;7.50;;
7432;SDS011;32233;49.500;7.764;2023-08-12T08:57:54;9.30;;;8.17;;
7432;SDS011;32233;49.500;7.764;2023-08-12T09:00:28;8.23;;;7.33;;
7432;SDS011;32233;49.500;7.764;2023-08-12T09:02:55;8.10;;;7.30;;
7432;SDS011;32233;49.500;7.764;2023-08-12T09:05:24;9.67;;;7.10;;
7432;SDS011;32233;49.500;7.764;2023-08-12T09:07:52;9.03;;;7.20;;
7432;SDS011;32233;49.500;7.764;2023-08-12T09:10:21;8.27;;;7.47;;
7432;SDS011;32233;49.500;7.764;2023-08-12T09:12:56;9.90;;;7.93;;
7432;SDS011;32233;49.500;7.764;2023-08-12T09:15:23;7.17;;;6.57;;
7432;SDS011;32233;49.500;7.764;2023-08-12T09:17:50;8.40;;;7.60;;
7432;SDS011;32233;49.500;7.764;2023-08-12T09:20:17;9.63;;;8.70;;
7432;SDS011;32233;49.500;7.764;2023-08-12T09:22:43;7.03;;;6.33;;
7432;SDS011;32233;49.500;7.764;2023-08-12T09:25:10;10.63;;;7.83;;
7432;SDS011;32233;49.500;7.764;2023-08-12T09:27:37;9.77;;;7.63;;
7432;SDS011;32233;49.500;7.764;2023-08-12T09:30:06;8.67;;;7.53;;
7432;SDS011;32233;49.500;7.764;2023-08-12T09:32:35;9.27;;;8.47;;
7432;SDS011;32233;49.500;7.764;2023-08-12T09:35:02;10.10;;;8.87;;
7432;SDS011;32233;49.500;7.764;2023-08-12T09:37:30;10.47;;;9.47;;
7432;SDS011;32233;49.500;7.764;2023-08-12T09:39:57;11.77;;;10.57;;
7432;SDS011;32233;49.500;7.764;2023-08-12T09:42:24;11.30;;;10.13;;
7432;SDS011;32233;49.500;7.764;2023-08-12T09:44:51;9.13;;;7.63;;
7432;SDS011;32233;49.500;7.764;2023-08-12T09:47:17;12.57;;;10.30;;
7432;SDS011;32233;49.500;7.764;2023-08-12T09:49:45;11.10;;;10.03;;
7432;SDS011;32233;49.500;7.764;2023-08-12T09:52:11;11.47;;;10.03;;
7432;SDS011;32233;49.500;7.764;2023-08-12T09:54:39;10.00;;;9.10;;
7432;SDS011;32233;49.500;7.764;2023-08-12T09:57:08;11.40;;;10.17;;
7432;SDS011;32233;49.500;7.764;2023-08-12T09:59:37;12.60;;;11.30;;
7432;SDS011;32233;49.500;7.764;2023-08-12T10:02:04;10.00;;;8.97;;
7432;SDS011;32233;49.500;7.764;2023-08-12T10:04:43;6.03;;;5.53;;
7432;SDS011;32233;49.500;7.764;2023-08-12T10:07:11;5.87;;;5.37;;
7432;SDS011;32233;49.500;7.764;2023-08-12T10:09:39;5.60;;;5.10;;
7432;SDS011;32233;49.500;7.764;2023-08-12T10:12:06;7.17;;;5.07;;
7432;SDS011;32233;49.500;7.764;2023-08-12T10:14:33;12.50;;;6.23;;
7432;SDS011;32233;49.500;7.764;2023-08-12T10:17:00;7.00;;;6.03;;
7432;SDS011;32233;49.500;7.764;2023-08-12T10:19:32;8.07;;;5.73;;
7432;SDS011;32233;49.500;7.764;2023-08-12T10:22:00;7.17;;;5.33;;
7432;SDS011;32233;49.500;7.764;2023-08-12T10:24:29;8.80;;;4.97;;
7432;SDS011;32233;49.500;7.764;2023-08-12T10:26:56;7.03;;;4.57;;
7432;SDS011;32233;49.500;7.764;2023-08-12T10:29:22;7.63;;;5.20;;
7432;SDS011;32233;49.500;7.764;2023-08-12T10:31:50;4.03;;;3.60;;
7432;SDS011;32233;49.500;7.764;2023-08-12T10:34:21;5.83;;;3.80;;
7432;SDS011;32233;49.500;7.764;2023-08-12T10:36:48;5.80;;;4.10;;
7432;SDS011;32233;49.500;7.764;2023-08-12T10:39:29;6.17;;;4.10;;
7432;SDS011;32233;49.500;7.764;2023-08-12T10:41:58;4.07;;;3.73;;
7432;SDS011;32233;49.500;7.764;2023-08-12T10:44:38;4.93;;;3.97;;
7432;SDS011;32233;49.500;7.764;2023-08-12T10:47:09;4.67;;;3.80;;
7432;SDS011;32233;49.500;7.764;2023-08-12T10:49:43;6.80;;;4.50;;
7432;SDS011;32233;49.500;7.764;2023-08-12T10:52:27;7.57;;;4.27;;
7432;SDS011;32233;49.500;7.764;2023-08-12T10:54:54;4.70;;;3.93;;
7432;SDS011;32233;49.500;7.764;2023-08-12T10:57:36;6.07;;;4.40;;
7432;SDS011;32233;49.500;7.764;2023-08-12T11:00:10;8.30;;;5.03;;
7432;SDS011;32233;49.500;7.764;2023-08-12T11:02:39;5.57;;;4.93;;
7432;SDS011;32233;49.500;7.764;2023-08-12T11:05:07;4.07;;;3.17;;
7432;SDS011;32233;49.500;7.764;2023-08-12T11:07:39;3.53;;;3.23;;
7432;SDS011;32233;49.500;7.764;2023-08-12T11:10:12;3.37;;;3.00;;
7432;SDS011;32233;49.500;7.764;2023-08-12T11:13:01;3.10;;;2.73;;
7432;SDS011;32233;49.500;7.764;2023-08-12T11:15:30;3.03;;;2.80;;
7432;SDS011;32233;49.500;7.764;2023-08-12T11:17:59;3.50;;;2.87;;
7432;SDS011;32233;49.500;7.764;2023-08-12T11:20:29;3.40;;;3.10;;
7432;SDS011;32233;49.500;7.764;2023-08-12T11:25:48;3.60;;;3.30;;
7432;SDS011;32233;49.500;7.764;2023-08-12T11:28:17;3.90;;;3.50;;
7432;SDS011;32233;49.500;7.764;2023-08-12T11:30:47;2.73;;;2.47;;
7432;SDS011;32233;49.500;7.764;2023-08-12T11:33:15;2.50;;;2.30;;
7432;SDS011;32233;49.500;7.764;2023-08-12T11:35:44;2.87;;;2.67;;
7432;SDS011;32233;49.500;7.764;2023-08-12T11:38:11;3.43;;;2.83;;
7432;SDS011;32233;49.500;7.764;2023-08-12T11:40:38;3.03;;;2.73;;
7432;SDS011;32233;49.500;7.764;2023-08-12T11:43:06;3.70;;;2.90;;
7432;SDS011;32233;49.500;7.764;2023-08-12T11:45:32;2.60;;;2.27;;
7432;SDS011;32233;49.500;7.764;2023-08-12T11:50:39;3.03;;;2.27;;
7432;SDS011;32233;49.500;7.764;2023-08-12T11:53:06;2.80;;;2.60;;
7432;SDS011;32233;49.500;7.764;2023-08-12T11:55:33;2.50;;;2.30;;
7432;SDS011;32233;49.500;7.764;2023-08-12T11:58:00;3.93;;;2.20;;
7432;SDS011;32233;49.500;7.764;2023-08-12T12:00:26;3.10;;;2.67;;
7432;SDS011;32233;49.500;7.764;2023-08-12T12:02:54;3.10;;;2.47;;
7432;SDS011;32233;49.500;7.764;2023-08-12T12:05:22;3.58;;;2.72;;
7432;SDS011;32233;49.500;7.764;2023-08-12T12:07:51;2.28;;;1.90;;
7432;SDS011;32233;49.500;7.764;2023-08-12T12:10:20;12.57;;;2.13;;
7432;SDS011;32233;49.500;7.764;2023-08-12T12:12:48;2.30;;;1.95;;
7432;SDS011;32233;49.500;7.764;2023-08-12T12:15:15;2.75;;;2.33;;
7432;SDS011;32233;49.500;7.764;2023-08-12T12:17:42;2.92;;;2.10;;
7432;SDS011;32233;49.500;7.764;2023-08-12T12:20:11;2.17;;;2.08;;
7432;SDS011;32233;49.500;7.764;2023-08-12T12:22:38;2.50;;;2.30;;
7432;SDS011;32233;49.500;7.764;2023-08-12T12:25:13;2.67;;;1.85;;
7432;SDS011;32233;49.500;7.764;2023-08-12T12:27:42;2.43;;;2.20;;
7432;SDS011;32233;49.500;7.764;2023-08-12T12:30:10;2.70;;;2.40;;
7432;SDS011;32233;49.500;7.764;2023-08-12T12:32:38;2.73;;;2.30;;
7432;SDS011;32233;49.500;7.764;2023-08-12T12:35:05;2.70;;;2.47;;
7432;SDS011;32233;49.500;7.764;2023-08-12T12:37:33;2.33;;;2.20;;
7432;SDS011;32233;49.500;7.764;2023-08-12T12:40:00;2.90;;;2.50;;
7432;SDS011;32233;49.500;7.764;2023-08-12T12:42:27;2.60;;;2.50;;
7432;SDS011;32233;49.500;7.764;2023-08-12T12:44:55;3.10;;;2.80;;
7432;SDS011;32233;49.500;7.764;2023-08-12T12:47:22;3.57;;;2.50;;
7432;SDS011;32233;49.500;7.764;2023-08-12T12:49:48;3.50;;;3.10;;
7432;SDS011;32233;49.500;7.764;2023-08-12T12:52:15;4.47;;;2.77;;
7432;SDS011;32233;49.500;7.764;2023-08-12T12:54:41;3.20;;;2.50;;
7432;SDS011;32233;49.500;7.764;2023-08-12T12:57:08;3.53;;;2.60;;
7432;SDS011;32233;49.500;7.764;2023-08-12T12:59:34;4.13;;;2.77;;
7432;SDS011;32233;49.500;7.764;2023-08-12T13:02:01;2.33;;;2.10;;
7432;SDS011;32233;49.500;7.764;2023-08-12T13:04:27;3.20;;;2.50;;
7432;SDS011;32233;49.500;7.764;2023-08-12T13:06:54;3.27;;;2.97;;
7432;SDS011;32233;49.500;7.764;2023-08-12T13:09:21;2.17;;;2.00;;
7432;SDS011;32233;49.500;7.764;2023-08-12T13:11:49;2.43;;;2.23;;
7432;SDS011;32233;49.500;7.764;2023-08-12T13:14:15;3.47;;;2.20;;
7432;SDS011;32233;49.500;7.764;2023-08-12T13:16:45;2.50;;;2.30;;
7432;SDS011;32233;49.500;7.764;2023-08-12T13:19:11;2.17;;;2.07;;
7432;SDS011;32233;49.500;7.764;2023-08-12T13:21:38;2.33;;;2.13;;
7432;SDS011;32233;49.500;7.764;2023-08-12T13:24:05;2.30;;;2.20;;
7432;SDS011;32233;49.500;7.764;2023-08-12T13:26:31;3.33;;;2.63;;
7432;SDS011;32233;49.500;7.764;2023-08-12T13:28:58;4.03;;;2.63;;
7432;SDS011;32233;49.500;7.764;2023-08-12T13:31:24;2.60;;;2.40;;
7432;SDS011;32233;49.500;7.764;2023-08-12T13:33:52;3.80;;;2.53;;
7432;SDS011;32233;49.500;7.764;2023-08-12T13:36:18;2.97;;;2.40;;
7432;SDS011;32233;49.500;7.764;2023-08-12T13:38:53;3.83;;;2.87;;
7432;SDS011;32233;49.500;7.764;2023-08-12T13:42:13;4.47;;;3.03;;
7432;SDS011;32233;49.500;7.764;2023-08-12T13:44:40;3.47;;;3.10;;
7432;SDS011;32233;49.500;7.764;2023-08-12T13:47:06;4.00;;;3.30;;
7432;SDS011;32233;49.500;7.764;2023-08-12T13:49:33;3.50;;;3.20;;
7432;SDS011;32233;49.500;7.764;2023-08-12T13:51:59;3.13;;;2.50;;
7432;SDS011;32233;49.500;7.764;2023-08-12T13:54:26;2.77;;;2.30;;
7432;SDS011;32233;49.500;7.764;2023-08-12T13:56:52;5.53;;;3.00;;
7432;SDS011;32233;49.500;7.764;2023-08-12T13:59:19;3.07;;;2.10;;
7432;SDS011;32233;49.500;7.764;2023-08-12T14:01:46;2.63;;;2.40;;
7432;SDS011;32233;49.500;7.764;2023-08-12T14:04:12;2.70;;;2.10;;
7432;SDS011;32233;49.500;7.764;2023-08-12T14:06:39;4.20;;;2.57;;
7432;SDS011;32233;49.500;7.764;2023-08-12T14:09:06;2.73;;;2.07;;
7432;SDS011;32233;49.500;7.764;2023-08-12T14:11:34;3.47;;;2.00;;
7432;SDS011;32233;49.500;7.764;2023-08-12T14:14:00;3.60;;;2.30;;
7432;SDS011;32233;49.500;7.764;2023-08-12T14:16:27;2.27;;;1.90;;
7432;SDS011;32233;49.500;7.764;2023-08-12T14:18:54;3.43;;;1.80;;
7432;SDS011;32233;49.500;7.764;2023-08-12T14:21:20;2.80;;;1.70;;
7432;SDS011;32233;49.500;7.764;2023-08-12T14:23:47;2.00;;;1.70;;
7432;SDS011;32233;49.500;7.764;2023-08-12T14:26:13;2.90;;;1.97;;
7432;SDS011;32233;49.500;7.764;2023-08-12T14:28:40;5.03;;;2.20;;
7432;SDS011;32233;49.500;7.764;2023-08-12T14:31:07;3.40;;;2.00;;
7432;SDS011;32233;49.500;7.764;2023-08-12T14:33:34;1.70;;;1.53;;
7432;SDS011;32233;49.500;7.764;2023-08-12T14:36:00;2.23;;;2.00;;
7432;SDS011;32233;49.500;7.764;2023-08-12T14:38:27;2.30;;;1.60;;
7432;SDS011;32233;49.500;7.764;2023-08-12T14:40:53;3.73;;;2.03;;
7432;SDS011;32233;49.500;7.764;2023-08-12T14:43:20;2.60;;;1.87;;
7432;SDS011;32233;49.500;7.764;2023-08-12T14:45:46;2.40;;;1.97;;
7432;SDS011;32233;49.500;7.764;2023-08-12T14:48:13;3.97;;;1.80;;
7432;SDS011;32233;49.500;7.764;2023-08-12T14:50:41;4.63;;;1.70;;
7432;SDS011;32233;49.500;7.764;2023-08-12T14:53:08;2.00;;;1.77;;
7432;SDS011;32233;49.500;7.764;2023-08-12T14:55:35;2.50;;;2.10;;
7432;SDS011;32233;49.500;7.764;2023-08-12T15:00:57;2.37;;;1.80;;
7432;SDS011;32233;49.500;7.764;2023-08-12T15:03:55;2.47;;;1.90;;